Time;durP1;ratioP1;P1;durP2;ratioP2;P2;SDS_P1;SDS_P2;PMS_P1;PMS_P2;Temp;Humidity;BMP_temperature;BMP_pressure;BME280_temperature;BME280_humidity;BME280_pressure;Samples;Min_cycle;Max_cycle;Signal;HPM_P1;HPM_P2
2021/12/06 00:00:16;;;;;;;;;3.00;3.00;;;;;9.38;64.23;100716.50;5022522;28;45500;-69
2021/12/06 00:02:43;;;;;;;;;2.25;1.00;;;;;9.33;64.35;100713.09;5022290;28;46377;-69
2021/12/06 00:05:10;;;;;;;;;2.50;1.50;;;;;9.33;63.87;100722.91;5022619;28;45364;-69
2021/12/06 00:07:38;;;;;;;;;2.00;0.50;;;;;9.33;64.10;100725.56;5022529;28;45355;-69
2021/12/06 00:10:05;;;;;;;;;3.50;2.50;;;;;9.26;64.23;100709.75;5022133;28;45165;-69
2021/12/06 00:12:30;;;;;;;;;2.00;2.00;;;;;9.28;64.44;100721.22;5021900;28;47231;-69
2021/12/06 00:14:56;;;;;;;;;1.75;1.50;;;;;9.28;64.12;100731.88;5022437;28;45264;-69
2021/12/06 00:17:21;;;;;;;;;3.00;1.50;;;;;9.25;64.13;100726.66;5022260;28;45598;-69
2021/12/06 00:19:47;;;;;;;;;4.00;2.75;;;;;9.32;64.69;100731.78;5022358;28;45476;-69
2021/12/06 00:22:15;;;;;;;;;2.00;1.00;;;;;9.30;64.36;100734.50;5021923;28;46008;-69
2021/12/06 00:24:41;;;;;;;;;3.00;2.00;;;;;9.33;64.61;100734.41;5022364;28;45259;-69
2021/12/06 00:27:07;;;;;;;;;4.50;3.75;;;;;9.38;64.74;100739.63;5021860;28;45144;-69
2021/12/06 00:29:32;;;;;;;;;6.00;6.00;;;;;9.40;64.34;100737.78;5022449;28;45223;-70
2021/12/06 00:31:58;;;;;;;;;2.00;2.00;;;;;9.41;64.61;100734.22;5021755;28;45207;-69
2021/12/06 00:34:29;;;;;;;;;2.75;2.75;;;;;9.41;64.07;100726.22;5021807;28;45168;-69
2021/12/06 00:37:05;;;;;;;;;3.50;1.00;;;;;9.44;64.18;100726.16;5021717;28;45312;-69
2021/12/06 00:39:32;;;;;;;;;1.50;1.50;;;;;9.45;64.37;100728.78;5021969;28;45471;-69
2021/12/06 00:41:58;;;;;;;;;4.00;2.00;;;;;9.50;64.52;100746.41;5021432;28;46206;-69
2021/12/06 00:44:23;;;;;;;;;4.00;3.00;;;;;9.49;64.24;100742.88;5021920;28;45290;-69
2021/12/06 00:46:48;;;;;;;;;9.00;3.00;;;;;9.49;64.41;100745.53;5021677;28;45328;-69
2021/12/06 00:49:14;;;;;;;;;2.00;2.00;;;;;9.51;64.47;100748.16;5021990;28;45479;-69
2021/12/06 00:51:40;;;;;;;;;3.50;2.25;;;;;9.54;64.59;100754.28;5021294;28;46635;-69
2021/12/06 00:54:07;;;;;;;;;2.25;2.25;;;;;9.60;64.02;100761.22;5021955;28;45656;-69
2021/12/06 00:56:32;;;;;;;;;5.50;3.00;;;;;9.56;64.29;100757.78;5021292;28;45422;-69
2021/12/06 00:58:58;;;;;;;;;2.00;2.00;;;;;9.62;63.90;100770.94;5021715;28;45319;-69
2021/12/06 01:01:23;;;;;;;;;3.25;3.25;;;;;9.59;64.17;100767.47;5021402;28;46060;-69
2021/12/06 01:03:49;;;;;;;;;3.25;1.75;;;;;9.63;64.50;100774.47;5021634;28;45330;-69
2021/12/06 01:06:15;;;;;;;;;5.50;3.00;;;;;9.67;64.26;100777.91;5021511;28;45475;-69
2021/12/06 01:08:41;;;;;;;;;4.00;3.00;;;;;9.60;63.62;100770.06;5021552;28;45517;-69
2021/12/06 01:11:08;;;;;;;;;5.00;4.00;;;;;9.57;64.33;100771.97;5020708;28;46147;-69
2021/12/06 01:13:35;;;;;;;;;4.00;3.00;;;;;9.62;63.86;100781.59;5021322;28;45483;-69
2021/12/06 01:16:00;;;;;;;;;4.25;3.75;;;;;9.61;64.29;100781.63;5021373;28;45235;-69
2021/12/06 01:18:26;;;;;;;;;4.50;2.00;;;;;9.57;64.04;100777.28;5021397;28;45275;-69
2021/12/06 01:21:05;;;;;;;;;3.00;2.00;;;;;9.59;64.40;100791.47;5021129;28;46392;-69
2021/12/06 01:23:44;;;;;;;;;3.25;2.00;;;;;9.59;64.22;100792.34;5021405;28;45463;-69
2021/12/06 01:26:29;;;;;;;;;3.00;2.00;;;;;9.60;64.20;100788.72;5021013;28;45335;-70
2021/12/06 01:39:18;;;;;;;;;3.25;3.25;;;;;9.60;64.61;100806.53;5020965;28;45153;-69
2021/12/06 01:41:52;;;;;;;;;4.00;2.00;;;;;9.60;64.34;100809.19;5020296;28;46757;-70
2021/12/06 01:44:25;;;;;;;;;3.00;3.00;;;;;9.55;64.64;100814.63;5020974;28;45410;-69
2021/12/06 01:47:05;;;;;;;;;3.00;2.00;;;;;9.51;64.65;100807.66;5019731;28;45341;-69
2021/12/06 01:49:46;;;;;;;;;2.00;2.00;;;;;9.58;64.52;100821.69;5020802;28;45290;-69
2021/12/06 01:52:37;;;;;;;;;4.75;3.00;;;;;9.58;64.69;100822.56;5009229;28;46224;-70
2021/12/06 01:55:05;;;;;;;;;7.25;5.50;;;;;9.56;64.84;100832.38;5017338;28;45299;-70
2021/12/06 01:57:32;;;;;;;;;2.50;2.50;;;;;9.58;64.66;100840.34;5020765;28;45292;-70
2021/12/06 01:59:58;;;;;;;;;2.75;2.00;;;;;9.61;64.71;100843.78;5035904;28;45323;-69
2021/12/06 02:02:25;;;;;;;;;4.25;3.25;;;;;9.62;64.96;100848.22;5020514;28;46286;-70
2021/12/06 02:04:51;;;;;;;;;4.25;4.25;;;;;9.62;64.71;100842.91;5020595;28;45382;-70
2021/12/06 02:07:21;;;;;;;;;5.75;3.75;;;;;9.62;65.23;100848.22;5020719;28;45290;-70
2021/12/06 02:09:49;;;;;;;;;2.75;2.00;;;;;9.62;65.10;100853.56;5020534;28;45302;-70
2021/12/06 02:12:16;;;;;;;;;4.00;2.25;;;;;9.58;64.97;100851.00;5019927;28;45334;-70
2021/12/06 02:15:00;;;;;;;;;4.75;3.00;;;;;9.56;65.39;100855.50;5020422;28;45339;-70
2021/12/06 02:17:30;;;;;;;;;5.00;3.25;;;;;9.62;64.76;100866.88;5020525;28;45329;-69
2021/12/06 02:20:15;;;;;;;;;3.75;2.50;;;;;9.56;65.00;100869.69;5020271;28;45370;-70
2021/12/06 02:22:40;;;;;;;;;4.00;2.00;;;;;9.55;65.35;100861.75;5020075;28;46651;-70
2021/12/06 02:25:13;;;;;;;;;4.00;2.50;;;;;9.54;65.33;100865.31;5020071;28;45542;-70
2021/12/06 02:27:39;;;;;;;;;3.75;3.75;;;;;9.55;65.30;100861.75;5020418;28;45307;-69
2021/12/06 02:30:07;;;;;;;;;8.00;3.75;;;;;9.54;65.16;100866.19;5020067;28;45464;-70
2021/12/06 02:32:34;;;;;;;;;1.50;0.75;;;;;9.58;65.42;100867.84;5020059;28;46319;-70
2021/12/06 02:35:00;;;;;;;;;5.00;3.75;;;;;9.62;65.50;100865.97;5020096;28;45319;-70
2021/12/06 02:37:30;;;;;;;;;4.00;3.00;;;;;9.62;65.05;100872.22;5020454;28;45235;-70
2021/12/06 02:39:55;;;;;;;;;3.50;3.25;;;;;9.63;65.14;100870.41;5019645;28;45216;-70
2021/12/06 02:42:22;;;;;;;;;5.50;4.25;;;;;9.64;65.61;100870.38;5019985;28;45410;-70
2021/12/06 02:44:48;;;;;;;;;4.00;4.00;;;;;9.66;65.16;100872.13;5020030;28;45481;-70
2021/12/06 02:47:16;;;;;;;;;4.25;3.00;;;;;9.62;65.34;100873.97;5020008;28;45406;-70
2021/12/06 02:49:41;;;;;;;;;3.00;3.00;;;;;9.62;65.01;100866.88;5019737;28;45430;-70
2021/12/06 02:52:08;;;;;;;;;3.75;3.00;;;;;9.63;65.55;100870.41;5019593;28;46539;-70
2021/12/06 02:54:34;;;;;;;;;4.00;3.25;;;;;9.62;65.06;100871.31;5019816;28;45251;-70
2021/12/06 02:57:19;;;;;;;;;2.00;1.25;;;;;9.63;65.23;100876.59;5019730;28;45357;-70
2021/12/06 02:59:46;;;;;;;;;4.50;4.50;;;;;9.61;65.31;100867.78;5022923;28;45233;-70
2021/12/06 03:02:16;;;;;;;;;2.00;2.00;;;;;9.62;64.97;100872.22;5023260;28;46746;-69
2021/12/06 03:04:42;;;;;;;;;4.00;3.50;;;;;9.63;65.59;100868.59;5023392;28;45560;-70
2021/12/06 03:07:10;;;;;;;;;3.00;3.00;;;;;9.63;65.15;100875.75;5023626;28;45402;-70
2021/12/06 03:09:39;;;;;;;;;3.25;3.25;;;;;9.68;65.69;100881.81;5023149;28;45263;-70
2021/12/06 03:12:09;;;;;;;;;2.25;2.25;;;;;9.70;65.24;100885.31;5022786;28;45394;-70
2021/12/06 03:14:46;;;;;;;;;4.00;3.50;;;;;9.71;65.54;100891.53;5023014;28;45439;-70
2021/12/06 03:17:14;;;;;;;;;6.50;3.00;;;;;9.73;65.06;100893.22;5023377;28;45331;-70
2021/12/06 03:19:40;;;;;;;;;3.00;3.00;;;;;9.75;65.62;100901.19;5023242;28;45439;-70
2021/12/06 03:22:08;;;;;;;;;5.00;3.50;;;;;9.76;65.04;100900.28;5022938;28;45385;-70
2021/12/06 03:24:34;;;;;;;;;4.25;4.25;;;;;9.75;65.27;100902.06;5023299;28;45572;-70
2021/12/06 03:26:59;;;;;;;;;4.00;3.75;;;;;9.76;65.92;100901.16;5022689;28;45247;-69
2021/12/06 03:29:26;;;;;;;;;4.00;4.00;;;;;9.80;65.13;100905.47;5023296;28;45279;-70
2021/12/06 03:31:51;;;;;;;;;4.00;4.00;;;;;9.80;65.24;100915.28;5022650;28;45519;-70
2021/12/06 03:34:18;;;;;;;;;3.00;3.00;;;;;9.79;65.26;100902.88;5023111;28;45245;-70
2021/12/06 03:36:45;;;;;;;;;3.25;3.00;;;;;9.78;65.27;100904.66;5022872;28;45299;-70
2021/12/06 03:39:20;;;;;;;;;3.25;3.25;;;;;9.83;65.19;100916.06;5022978;28;45315;-70
2021/12/06 03:41:47;;;;;;;;;3.50;3.50;;;;;9.84;65.25;100906.28;5022575;28;46223;-70
2021/12/06 03:44:12;;;;;;;;;6.25;4.75;;;;;9.86;65.70;100911.59;5022878;28;45382;-70
2021/12/06 03:46:39;;;;;;;;;6.00;4.00;;;;;9.83;65.65;100913.41;5022757;28;45300;-70
2021/12/06 03:49:13;;;;;;;;;5.00;3.25;;;;;9.83;65.31;100902.72;5022814;28;45371;-70
2021/12/06 03:51:38;;;;;;;;;4.00;3.75;;;;;9.82;65.83;100906.34;5022229;28;47418;-69
2021/12/06 03:54:04;;;;;;;;;3.50;3.50;;;;;9.84;65.85;100916.97;5022638;28;45274;-70
2021/12/06 03:56:29;;;;;;;;;3.50;3.50;;;;;9.81;65.43;100912.56;5022292;28;45521;-69
2021/12/06 03:58:55;;;;;;;;;4.00;4.00;;;;;9.74;65.23;100911.00;5022753;28;45313;-70
2021/12/06 04:01:21;;;;;;;;;4.75;3.75;;;;;9.78;65.47;100925.13;5022417;28;45319;-70
2021/12/06 04:03:47;;;;;;;;;5.50;4.25;;;;;9.75;65.85;100920.72;5022527;28;45859;-69
2021/12/06 04:06:13;;;;;;;;;7.25;6.50;;;;;9.71;65.59;100923.53;5022450;28;45308;-69
2021/12/06 04:08:39;;;;;;;;;3.00;3.00;;;;;9.74;66.16;100934.09;5022679;28;45321;-69
2021/12/06 04:11:05;;;;;;;;;5.00;5.00;;;;;9.73;65.96;100945.69;5020602;28;45328;-69
2021/12/06 04:13:31;;;;;;;;;4.00;4.00;;;;;9.72;66.10;100947.50;5022177;28;45497;-69
2021/12/06 04:15:57;;;;;;;;;4.00;4.00;;;;;9.76;65.92;100961.59;5022277;28;45244;-70
2021/12/06 04:18:22;;;;;;;;;8.75;5.50;;;;;9.73;66.27;100951.88;5022322;28;45448;-69
2021/12/06 04:20:48;;;;;;;;;4.00;4.00;;;;;9.75;66.11;100957.19;5022063;28;45449;-69
2021/12/06 04:23:14;;;;;;;;;7.50;6.00;;;;;9.72;65.87;100951.91;5022341;28;45316;-70
2021/12/06 04:25:40;;;;;;;;;4.00;4.00;;;;;9.78;65.64;100965.09;5021865;28;45345;-70
2021/12/06 04:28:08;;;;;;;;;7.50;7.00;;;;;9.80;66.13;100969.47;5022145;28;45350;-69
2021/12/06 04:30:38;;;;;;;;;7.75;5.00;;;;;9.80;65.99;100972.13;5021831;28;46364;-69
2021/12/06 04:33:05;;;;;;;;;5.00;4.25;;;;;9.85;65.75;100977.34;5021998;28;45251;-69
2021/12/06 04:35:34;;;;;;;;;5.00;5.00;;;;;9.88;66.00;100973.75;5022141;28;45564;-70
2021/12/06 04:37:59;;;;;;;;;4.75;4.75;;;;;9.89;65.85;100972.81;5022035;28;45290;-70
2021/12/06 04:40:27;;;;;;;;;8.50;5.75;;;;;9.88;65.65;100971.94;5021200;28;46165;-69
2021/12/06 04:42:53;;;;;;;;;5.00;5.00;;;;;9.88;65.79;100971.94;5021965;28;45547;-70
2021/12/06 04:45:19;;;;;;;;;5.75;4.50;;;;;9.91;65.90;100979.88;5021804;28;45437;-70
2021/12/06 04:47:44;;;;;;;;;7.25;4.25;;;;;9.87;66.01;100977.31;5021834;28;45253;-69
2021/12/06 04:50:12;;;;;;;;;7.75;5.25;;;;;9.94;65.83;100997.56;5021421;28;45272;-69
2021/12/06 04:52:38;;;;;;;;;5.50;5.50;;;;;9.93;66.36;101002.03;5021522;28;45343;-69
2021/12/06 04:55:16;;;;;;;;;6.25;4.50;;;;;9.93;65.83;100996.69;5021460;28;45602;-69
2021/12/06 04:57:45;;;;;;;;;10.00;5.00;;;;;9.95;65.78;101000.19;5021618;28;46159;-69
2021/12/06 05:00:36;;;;;;;;;4.50;4.50;;;;;9.98;65.89;101008.13;5021770;28;46481;-69
2021/12/06 05:03:03;;;;;;;;;7.75;5.75;;;;;10.00;65.73;101008.94;5021506;28;45327;-69
2021/12/06 05:05:58;;;;;;;;;6.25;4.75;;;;;10.00;66.21;101014.28;5021934;28;45312;-70
2021/12/06 05:08:27;;;;;;;;;7.00;6.00;;;;;10.01;66.34;101008.06;5021833;28;45639;-70
2021/12/06 05:10:54;;;;;;;;;8.00;5.00;;;;;9.97;66.48;101006.38;5020627;28;45318;-69
2021/12/06 05:13:21;;;;;;;;;6.75;5.00;;;;;10.00;66.44;101010.75;5021679;28;45336;-70
2021/12/06 05:15:46;;;;;;;;;4.25;4.25;;;;;9.95;66.05;101016.19;5021271;28;45313;-69
2021/12/06 05:18:13;;;;;;;;;5.50;4.50;;;;;9.93;66.43;101027.84;5021347;28;45405;-69
2021/12/06 05:20:39;;;;;;;;;6.25;4.50;;;;;9.92;66.17;101028.72;5020996;28;45352;-69
2021/12/06 05:23:06;;;;;;;;;6.25;4.00;;;;;9.93;66.21;101023.38;5021256;28;45231;-69
2021/12/06 05:25:33;;;;;;;;;6.25;6.25;;;;;9.94;66.38;101026.91;5020837;28;45363;-69
2021/12/06 05:27:59;;;;;;;;;5.00;4.00;;;;;9.96;66.34;101030.44;5021212;28;45317;-69
2021/12/06 05:30:26;;;;;;;;;4.00;4.00;;;;;9.94;66.38;101022.47;5021008;28;46470;-69
2021/12/06 05:32:54;;;;;;;;;8.25;4.50;;;;;9.98;66.70;101024.13;5021115;28;45600;-69
2021/12/06 05:35:20;;;;;;;;;6.50;6.00;;;;;9.98;66.74;101031.25;5021330;28;45161;-69
2021/12/06 05:37:49;;;;;;;;;6.00;5.00;;;;;9.98;66.08;101044.59;5021168;28;45405;-69
2021/12/06 05:40:19;;;;;;;;;7.50;5.00;;;;;9.99;66.35;101052.56;5020238;28;45330;-69
2021/12/06 05:42:45;;;;;;;;;4.75;4.75;;;;;9.99;66.57;101052.56;5021138;28;45511;-69
2021/12/06 05:45:12;;;;;;;;;3.50;3.50;;;;;9.97;66.05;101045.50;5036065;28;45388;-70
2021/12/06 05:47:38;;;;;;;;;6.25;5.00;;;;;9.94;66.37;101041.13;5020985;28;45497;-69
2021/12/06 05:50:05;;;;;;;;;4.00;4.00;;;;;9.99;66.00;101052.56;5020452;28;45464;-69
2021/12/06 05:52:31;;;;;;;;;4.75;4.00;;;;;10.00;66.26;101053.41;5020728;28;45389;-69
2021/12/06 05:54:56;;;;;;;;;4.75;4.25;;;;;10.00;66.02;101056.09;5020570;28;45208;-69
2021/12/06 05:57:21;;;;;;;;;9.75;7.75;;;;;9.93;66.27;101051.84;5020554;28;45220;-69
2021/12/06 05:59:47;;;;;;;;;5.75;4.75;;;;;9.96;66.40;101059.75;5020542;28;46416;-69
2021/12/06 06:02:12;;;;;;;;;9.00;5.00;;;;;9.93;66.53;101049.16;5020650;28;45214;-69
2021/12/06 06:04:39;;;;;;;;;7.50;5.00;;;;;9.92;66.26;101053.63;5020567;28;45304;-69
2021/12/06 06:07:06;;;;;;;;;7.50;6.75;;;;;9.93;66.61;101054.50;5020573;28;45524;-69
2021/12/06 06:09:32;;;;;;;;;4.75;4.75;;;;;9.88;66.32;101053.75;5020229;28;46082;-69
2021/12/06 06:11:57;;;;;;;;;7.75;4.25;;;;;9.95;66.12;101068.66;5020070;28;45362;-69
2021/12/06 06:14:23;;;;;;;;;5.75;5.75;;;;;9.91;66.31;101064.34;5020380;28;45291;-69
2021/12/06 06:16:51;;;;;;;;;5.00;5.00;;;;;9.94;65.99;101070.47;5020561;28;45497;-69
2021/12/06 06:19:20;;;;;;;;;5.25;5.25;;;;;9.95;66.08;101080.19;5020142;28;46297;-69
2021/12/06 06:21:46;;;;;;;;;4.00;4.00;;;;;9.94;66.56;101073.13;5020434;28;45335;-69
2021/12/06 06:24:12;;;;;;;;;6.75;4.75;;;;;9.92;66.25;101077.63;5020297;28;45413;-70
2021/12/06 06:26:38;;;;;;;;;5.00;5.00;;;;;9.93;66.09;101083.84;5019925;28;45409;-70
2021/12/06 06:29:04;;;;;;;;;9.00;8.25;;;;;9.91;66.32;101081.19;5020033;28;46196;-70
2021/12/06 06:31:29;;;;;;;;;6.25;6.25;;;;;9.92;66.42;101085.63;5020072;28;45318;-69
2021/12/06 06:33:54;;;;;;;;;4.00;4.00;;;;;9.94;65.91;101081.13;5019670;28;45398;-70
2021/12/06 06:36:20;;;;;;;;;8.75;5.00;;;;;9.98;66.07;101085.47;5020161;28;45336;-69
2021/12/06 06:38:45;;;;;;;;;9.00;7.00;;;;;9.99;66.43;101092.56;5019859;28;45290;-70
2021/12/06 06:41:10;;;;;;;;;5.00;5.00;;;;;9.98;65.31;101093.47;5019833;28;45460;-69
2021/12/06 06:43:36;;;;;;;;;7.00;7.00;;;;;9.97;66.11;101089.06;5020062;28;45327;-70
2021/12/06 06:46:03;;;;;;;;;10.00;10.00;;;;;9.93;66.19;101087.38;5019943;28;45681;-69
2021/12/06 06:48:28;;;;;;;;;10.75;6.25;;;;;9.95;65.73;101090.88;5019474;28;46458;-70
2021/12/06 06:50:54;;;;;;;;;8.00;7.75;;;;;9.99;66.00;101095.22;5019871;28;45319;-69
2021/12/06 06:53:19;;;;;;;;;8.00;7.00;;;;;9.97;65.85;101091.72;5019905;28;45345;-69
2021/12/06 06:55:45;;;;;;;;;5.00;4.75;;;;;10.00;65.70;101091.63;5019642;28;45425;-70
2021/12/06 06:58:10;;;;;;;;;10.75;7.75;;;;;9.98;65.86;101093.47;5019494;28;46395;-69
2021/12/06 07:00:40;;;;;;;;;10.00;7.00;;;;;10.01;66.23;101101.41;5019962;28;45599;-69
2021/12/06 07:03:08;;;;;;;;;8.25;8.00;;;;;10.02;65.63;101107.59;5019851;28;45418;-69
2021/12/06 07:05:34;;;;;;;;;12.00;9.00;;;;;10.00;65.75;101107.63;5019857;28;45227;-70
2021/12/06 07:08:00;;;;;;;;;8.75;7.00;;;;;10.00;66.25;101120.97;5019594;28;45172;-69
2021/12/06 07:10:25;;;;;;;;;9.75;8.00;;;;;10.00;66.10;101114.75;5019230;28;45395;-69
2021/12/06 07:12:53;;;;;;;;;8.75;8.75;;;;;10.02;65.89;101129.84;5019613;28;45509;-69
2021/12/06 07:15:23;;;;;;;;;9.25;7.00;;;;;10.03;65.70;101133.38;5019577;28;45391;-69
2021/12/06 07:17:51;;;;;;;;;9.00;8.00;;;;;10.05;65.26;101139.53;5019471;28;46120;-69
2021/12/06 07:20:17;;;;;;;;;8.75;8.75;;;;;10.05;65.42;101142.19;5019328;28;45362;-69
2021/12/06 07:22:43;;;;;;;;;11.00;9.25;;;;;9.97;65.29;101131.72;5019835;28;45312;-69
2021/12/06 07:25:09;;;;;;;;;11.25;9.00;;;;;9.99;65.24;101132.56;5019129;28;45259;-69
2021/12/06 07:27:35;;;;;;;;;7.00;7.00;;;;;10.05;65.39;101149.34;5019351;28;45318;-69
2021/12/06 07:30:00;;;;;;;;;8.25;6.25;;;;;10.05;65.79;101142.19;5019418;28;45249;-69
2021/12/06 07:32:26;;;;;;;;;10.75;10.75;;;;;10.06;65.75;101148.44;5019337;28;45263;-69
2021/12/06 07:34:52;;;;;;;;;11.00;10.75;;;;;9.99;65.72;101139.69;5019457;28;45292;-69
2021/12/06 07:37:17;;;;;;;;;14.50;10.00;;;;;10.03;65.79;101149.38;5019286;28;46145;-70
2021/12/06 07:39:43;;;;;;;;;11.00;10.50;;;;;10.05;65.90;101158.19;5018951;28;45363;-69
2021/12/06 07:42:12;;;;;;;;;10.75;9.75;;;;;10.01;65.35;101153.88;5019247;28;45253;-69
2021/12/06 07:44:41;;;;;;;;;10.50;10.00;;;;;10.01;65.44;101144.06;5020360;28;45404;-69
2021/12/06 07:47:08;;;;;;;;;10.25;10.25;;;;;10.03;65.56;101146.69;5022737;28;46930;-69
2021/12/06 07:49:33;;;;;;;;;11.25;9.50;;;;;10.02;65.60;101144.94;5022457;28;45330;-69
2021/12/06 07:51:59;;;;;;;;;7.25;6.75;;;;;9.93;65.25;101129.16;5022683;28;45239;-69
2021/12/06 07:54:24;;;;;;;;;8.00;8.00;;;;;9.97;65.46;101142.41;5022557;28;45466;-69
2021/12/06 07:56:50;;;;;;;;;7.00;6.75;;;;;10.01;65.49;101144.06;5022205;28;45405;-69
2021/12/06 07:59:15;;;;;;;;;9.00;9.00;;;;;10.02;65.51;101150.28;5022548;28;45275;-69
2021/12/06 08:01:40;;;;;;;;;5.50;5.50;;;;;10.02;65.80;101161.84;5022782;28;45283;-69
2021/12/06 08:04:06;;;;;;;;;15.50;9.50;;;;;10.04;65.85;101155.56;5022488;28;45346;-69
2021/12/06 08:06:32;;;;;;;;;8.00;7.75;;;;;10.06;65.70;101153.78;5022427;28;45331;-68
2021/12/06 08:08:58;;;;;;;;;9.50;7.75;;;;;10.02;65.76;101150.28;5022188;28;45516;-68
2021/12/06 08:11:25;;;;;;;;;9.75;8.00;;;;;10.00;65.63;101150.31;5022158;28;45449;-69
2021/12/06 08:13:56;;;;;;;;;8.00;8.00;;;;;10.04;65.86;101153.81;5022173;28;45537;-70
2021/12/06 08:16:28;;;;;;;;;9.00;8.00;;;;;10.01;65.56;101143.19;5022483;28;45370;-70
2021/12/06 08:18:54;;;;;;;;;10.25;9.25;;;;;9.99;65.73;101135.22;5022346;28;45267;-70
2021/12/06 08:21:22;;;;;;;;;14.50;11.50;;;;;9.99;65.70;101142.38;5022435;28;45270;-69
2021/12/06 08:23:49;;;;;;;;;9.75;9.75;;;;;9.98;65.26;101145.94;5022099;28;45394;-69
2021/12/06 08:26:17;;;;;;;;;10.00;9.50;;;;;9.91;65.38;101137.19;5021716;28;46090;-70
2021/12/06 08:28:43;;;;;;;;;13.00;9.75;;;;;9.96;65.12;101137.09;5021790;28;45248;-69
2021/12/06 08:31:10;;;;;;;;;8.00;8.00;;;;;9.91;65.39;101126.53;5021951;28;45259;-70
2021/12/06 08:33:36;;;;;;;;;8.75;8.00;;;;;9.88;65.70;101125.72;5021758;28;45520;-70
2021/12/06 08:36:04;;;;;;;;;10.25;10.25;;;;;9.86;65.46;101116.91;5021752;28;45496;-69
2021/12/06 08:38:31;;;;;;;;;12.50;11.00;;;;;9.94;65.54;101133.56;5021454;28;45321;-69
2021/12/06 08:40:58;;;;;;;;;14.25;10.75;;;;;9.93;65.79;101140.69;5021452;28;45227;-70
2021/12/06 08:43:24;;;;;;;;;13.50;12.00;;;;;9.93;64.99;101146.03;5036902;28;45306;-69
2021/12/06 08:45:58;;;;;;;;;12.25;9.00;;;;;9.97;65.67;101142.41;5021428;28;45252;-69
2021/12/06 08:48:28;;;;;;;;;17.00;12.00;;;;;10.00;65.00;101136.97;5021211;28;45324;-69
2021/12/06 08:50:56;;;;;;;;;15.00;12.50;;;;;10.00;65.26;101138.75;5021618;28;45547;-69
2021/12/06 08:53:22;;;;;;;;;13.50;13.50;;;;;10.01;65.10;101143.19;5021403;28;45367;-69
2021/12/06 08:55:48;;;;;;;;;9.50;8.50;;;;;10.00;65.55;101141.44;5020579;28;47400;-69
2021/12/06 08:58:13;;;;;;;;;13.75;12.25;;;;;10.01;65.26;101121.88;5021388;28;45331;-69
2021/12/06 09:00:39;;;;;;;;;12.00;12.00;;;;;10.01;65.49;101121.88;5021566;28;45556;-66
2021/12/06 09:03:05;;;;;;;;;15.00;12.00;;;;;10.04;65.40;101126.22;5021472;28;45261;-67
2021/12/06 09:05:42;;;;;;;;;17.25;12.75;;;;;10.09;65.26;101116.31;5021383;28;45314;-69
2021/12/06 09:08:08;;;;;;;;;13.00;11.75;;;;;10.02;64.63;101123.59;5021347;28;45301;-69
2021/12/06 09:10:34;;;;;;;;;13.75;11.00;;;;;10.00;64.44;101136.97;5021128;28;45294;-69
2021/12/06 09:13:00;;;;;;;;;10.75;9.75;;;;;9.91;64.65;101134.53;5021055;28;45532;-69
2021/12/06 09:15:26;;;;;;;;;9.00;8.00;;;;;9.84;64.63;101140.94;5021299;28;45318;-68
2021/12/06 09:17:53;;;;;;;;;14.25;10.75;;;;;9.86;64.88;101147.09;5021103;28;45377;-70
2021/12/06 09:20:23;;;;;;;;;10.50;8.75;;;;;9.90;64.99;101147.91;5021521;28;45228;-70
2021/12/06 09:22:49;;;;;;;;;13.00;9.75;;;;;9.90;65.25;101143.44;5021302;28;45303;-69
2021/12/06 09:25:16;;;;;;;;;10.25;10.25;;;;;9.91;64.91;101137.19;5020752;28;46232;-69
2021/12/06 09:27:42;;;;;;;;;10.00;10.00;;;;;9.93;64.88;101148.69;5021204;28;45339;-70
2021/12/06 09:30:10;;;;;;;;;11.00;11.00;;;;;9.96;64.45;101145.97;5021245;28;45336;-69
2021/12/06 09:32:36;;;;;;;;;9.00;9.00;;;;;9.95;64.99;101140.66;5021216;28;45491;-70
2021/12/06 09:35:03;;;;;;;;;12.00;9.00;;;;;10.00;64.81;101136.09;5021094;28;46341;-70
2021/12/06 09:37:29;;;;;;;;;9.00;8.25;;;;;9.97;64.37;101131.72;5021274;28;45338;-69
2021/12/06 09:39:56;;;;;;;;;16.25;10.50;;;;;10.01;64.53;101146.72;5020774;28;45292;-69
2021/12/06 09:42:22;;;;;;;;;8.00;8.00;;;;;10.00;64.58;101150.31;5007670;28;45526;-68
2021/12/06 09:44:48;;;;;;;;;8.00;8.00;;;;;9.97;63.80;101145.06;5020675;28;46211;-68
2021/12/06 09:47:13;;;;;;;;;8.25;8.25;;;;;9.97;64.09;101131.72;5020694;28;45330;-70
2021/12/06 09:49:39;;;;;;;;;10.00;7.25;;;;;10.01;64.15;101135.19;5020838;28;45348;-70
2021/12/06 09:52:09;;;;;;;;;11.50;10.25;;;;;10.00;64.80;101133.44;5020465;28;45313;-70
2021/12/06 09:54:40;;;;;;;;;10.75;9.50;;;;;10.04;64.42;101137.81;5020116;28;46196;-70
2021/12/06 09:57:07;;;;;;;;;10.75;10.00;;;;;9.99;64.18;101140.56;5020607;28;45133;-69
2021/12/06 09:59:34;;;;;;;;;10.75;8.75;;;;;10.03;64.60;101141.38;5020756;28;45252;-70
2021/12/06 10:02:08;;;;;;;;;9.00;6.25;;;;;10.07;64.06;101144.84;5020610;28;45561;-70
2021/12/06 10:04:36;;;;;;;;;9.25;9.25;;;;;10.07;63.98;101135.03;5020432;28;46563;-70
2021/12/06 10:07:03;;;;;;;;;6.50;5.25;;;;;10.07;63.61;101144.84;5020482;28;45550;-70
2021/12/06 10:09:28;;;;;;;;;8.25;7.00;;;;;10.06;64.16;101133.28;5019689;28;45319;-69
2021/12/06 10:11:57;;;;;;;;;6.50;6.50;;;;;10.08;63.60;101134.13;5020168;28;45219;-70
2021/12/06 10:14:23;;;;;;;;;9.00;7.75;;;;;10.14;63.41;101141.09;5020018;28;46420;-70
2021/12/06 10:16:48;;;;;;;;;8.50;8.00;;;;;10.12;63.19;101140.25;5020498;28;45391;-70
2021/12/06 10:19:15;;;;;;;;;8.00;7.00;;;;;10.11;63.57;101127.84;5020483;28;45335;-69
2021/12/06 10:21:41;;;;;;;;;14.00;10.00;;;;;10.10;63.50;101118.09;5020359;28;45444;-68
2021/12/06 10:24:10;;;;;;;;;11.00;11.00;;;;;10.10;63.81;101112.75;5020195;28;46455;-69
2021/12/06 10:26:36;;;;;;;;;8.25;8.25;;;;;10.09;63.79;101100.31;5019915;28;45331;-69
2021/12/06 10:29:07;;;;;;;;;13.50;13.25;;;;;10.06;63.62;101097.75;5020296;28;45519;-69
2021/12/06 10:31:37;;;;;;;;;8.00;8.00;;;;;10.12;63.49;101092.25;5019984;28;45385;-68
2021/12/06 10:34:03;;;;;;;;;12.00;10.75;;;;;10.07;63.69;101094.16;5019926;28;45366;-69
2021/12/06 10:36:28;;;;;;;;;14.50;11.25;;;;;10.11;63.69;101091.38;5020270;28;45477;-69
2021/12/06 10:39:01;;;;;;;;;19.25;14.25;;;;;10.10;63.85;101076.28;5019867;28;45354;-69
2021/12/06 10:41:28;;;;;;;;;9.75;9.75;;;;;10.09;63.76;101062.97;5019562;28;45535;-69
2021/12/06 10:43:57;;;;;;;;;11.75;10.25;;;;;10.14;63.56;101067.31;5019872;28;45938;-70
2021/12/06 10:46:24;;;;;;;;;11.75;11.25;;;;;10.15;64.08;101065.50;5019942;28;45234;-69
2021/12/06 10:48:54;;;;;;;;;9.50;9.00;;;;;10.19;63.68;101067.19;5020124;28;45293;-69
2021/12/06 10:51:20;;;;;;;;;10.50;7.75;;;;;10.23;64.10;101068.84;5019756;28;45331;-69
2021/12/06 10:53:57;;;;;;;;;11.00;10.25;;;;;10.22;64.06;101052.88;5019601;28;45640;-69
2021/12/06 10:56:31;;;;;;;;;10.50;8.25;;;;;10.27;63.55;101049.16;5019445;28;45617;-69
2021/12/06 10:58:58;;;;;;;;;9.25;8.00;;;;;10.20;63.80;101034.25;5019857;28;45245;-70
2021/12/06 11:01:31;;;;;;;;;9.25;9.25;;;;;10.24;63.13;101045.69;5019654;28;46075;-70
2021/12/06 11:03:57;;;;;;;;;10.75;9.00;;;;;10.29;63.61;101051.78;5034924;28;45436;-70
2021/12/06 11:06:29;;;;;;;;;8.00;6.75;;;;;10.31;63.73;101034.84;5019738;28;45585;-70
2021/12/06 11:08:56;;;;;;;;;7.25;7.25;;;;;10.35;63.90;101041.00;5019846;28;45411;-70
2021/12/06 11:11:35;;;;;;;;;11.50;9.00;;;;;10.31;62.95;101032.16;5019246;28;45321;-68
2021/12/06 11:14:19;;;;;;;;;9.50;8.00;;;;;10.29;63.48;101028.69;5035137;28;47082;-69
2021/12/06 11:16:48;;;;;;;;;5.50;5.00;;;;;10.24;63.30;101037.69;5023214;28;45319;-70
2021/12/06 11:19:18;;;;;;;;;8.25;8.25;;;;;10.26;63.47;101022.56;5020320;28;45354;-70
2021/12/06 11:22:08;;;;;;;;;10.50;9.00;;;;;10.24;63.20;101014.59;5023227;28;45331;-69
2021/12/06 11:24:51;;;;;;;;;9.25;8.75;;;;;10.31;63.45;101025.97;5022820;28;45325;-69
2021/12/06 11:27:21;;;;;;;;;13.25;10.25;;;;;10.36;63.39;101032.09;5023026;28;45499;-68
2021/12/06 11:29:52;;;;;;;;;11.25;11.25;;;;;10.35;63.41;101033.00;5023079;28;45259;-68
2021/12/06 11:32:23;;;;;;;;;11.00;11.00;;;;;10.38;63.36;101032.91;5022685;28;45600;-69
2021/12/06 11:35:08;;;;;;;;;12.50;10.75;;;;;10.38;63.54;101038.25;5022698;28;45434;-70
2021/12/06 11:37:38;;;;;;;;;11.75;11.00;;;;;10.37;63.60;101033.81;5022933;28;45232;-70
2021/12/06 11:40:14;;;;;;;;;12.50;10.50;;;;;10.37;63.69;101026.72;5022406;28;45542;-70